createdAt,value
2019-03-26T04:47:34.664Z,4.50
2019-03-26T04:50:03.760Z,4.50
2019-03-26T04:52:32.184Z,4.30
2019-03-26T04:55:00.608Z,4.30
2019-03-26T04:57:29.036Z,4.40
2019-03-26T04:59:57.511Z,4.30
2019-03-26T05:02:26.003Z,4.40
2019-03-26T05:04:54.437Z,4.40
2019-03-26T05:07:22.856Z,4.50
2019-03-26T05:09:51.277Z,4.60
2019-03-26T05:12:19.694Z,4.60
2019-03-26T05:14:48.107Z,4.60
2019-03-26T05:17:16.532Z,4.50
2019-03-26T05:19:44.969Z,4.50
2019-03-26T05:22:23.449Z,4.50
2019-03-26T05:24:43.543Z,4.40
2019-03-26T05:27:11.959Z,4.40
2019-03-26T05:29:40.391Z,4.50
2019-03-26T05:32:08.821Z,4.50
2019-03-26T05:34:37.247Z,4.50
2019-03-26T05:37:05.663Z,4.60
2019-03-26T05:39:34.100Z,4.60
2019-03-26T05:42:02.516Z,4.60
2019-03-26T05:44:30.944Z,4.60
2019-03-26T05:47:01.649Z,4.60
2019-03-26T05:49:29.528Z,4.80
2019-03-26T05:51:58.014Z,4.90
2019-03-26T05:54:26.452Z,4.90
2019-03-26T05:56:54.877Z,4.90
2019-03-26T05:59:23.312Z,5.00
2019-03-26T06:01:51.738Z,5.00
2019-03-26T06:04:20.163Z,4.90
2019-03-26T06:06:48.592Z,4.80
2019-03-26T06:09:17.012Z,4.90
2019-03-26T06:11:45.558Z,4.90
2019-03-26T06:14:13.980Z,5.00
2019-03-26T06:16:42.402Z,5.10
2019-03-26T06:19:10.819Z,5.10
2019-03-26T06:21:39.243Z,5.10
2019-03-26T06:24:07.669Z,5.10
2019-03-26T06:26:36.092Z,5.20
2019-03-26T06:29:04.509Z,5.10
2019-03-26T06:31:32.948Z,5.10
2019-03-26T06:34:01.369Z,5.10
2019-03-26T06:36:29.783Z,5.20
2019-03-26T06:38:58.214Z,5.20
2019-03-26T06:41:26.635Z,5.20
2019-03-26T06:43:55.061Z,5.30
2019-03-26T06:46:23.487Z,5.30
2019-03-26T06:48:51.911Z,5.40
2019-03-26T06:51:20.359Z,5.40
2019-03-26T06:53:48.775Z,5.50
2019-03-26T06:56:17.200Z,5.50
2019-03-26T06:58:45.626Z,5.40
2019-03-26T07:01:14.350Z,5.60
2019-03-26T07:03:42.775Z,5.70
2019-03-26T07:06:11.200Z,5.80
2019-03-26T07:08:39.643Z,5.90
2019-03-26T07:11:08.060Z,6.00
2019-03-26T07:13:36.497Z,6.00
2019-03-26T07:16:04.924Z,6.10
2019-03-26T07:18:33.348Z,6.10
2019-03-26T07:21:01.790Z,6.10
2019-03-26T07:23:30.213Z,6.20
2019-03-26T07:25:58.653Z,6.20
2019-03-26T07:28:27.089Z,6.20
2019-03-26T07:30:55.526Z,6.30
2019-03-26T07:33:24.018Z,6.40
2019-03-26T07:35:52.460Z,6.60
2019-03-26T07:38:20.883Z,6.90
2019-03-26T07:40:49.321Z,7.20
2019-03-26T07:43:17.739Z,7.40
2019-03-26T07:45:46.167Z,7.80
2019-03-26T07:48:14.743Z,8.40
2019-03-26T07:50:45.417Z,8.70
2019-03-26T07:53:13.861Z,9.10
2019-03-26T07:55:43.858Z,9.60
2019-03-26T07:58:12.616Z,10.20
2019-03-26T08:00:41.064Z,10.60
2019-03-26T08:03:09.487Z,11.00
2019-03-26T08:05:38.119Z,11.10
2019-03-26T08:08:06.679Z,10.90
2019-03-26T08:10:35.179Z,10.40
2019-03-26T08:13:03.797Z,10.30
2019-03-26T08:15:32.324Z,10.70
2019-03-26T08:18:00.864Z,11.50
2019-03-26T08:20:29.314Z,12.60
2019-03-26T08:22:57.743Z,13.50
2019-03-26T08:25:26.279Z,14.80
2019-03-26T08:27:54.769Z,14.90
2019-03-26T08:30:23.196Z,14.00
2019-03-26T08:32:51.628Z,13.00
2019-03-26T08:35:20.056Z,13.20
2019-03-26T08:37:48.488Z,13.40
2019-03-26T08:40:16.921Z,13.30
2019-03-26T08:42:45.345Z,12.40
2019-03-26T08:45:14.007Z,12.10
2019-03-26T08:47:42.431Z,11.90
2019-03-26T08:50:11.200Z,11.60
2019-03-26T08:52:39.650Z,11.40
2019-03-26T08:55:09.625Z,11.10
2019-03-26T08:57:38.116Z,11.30
2019-03-26T09:00:07.980Z,11.10
2019-03-26T09:02:36.780Z,11.10
2019-03-26T09:05:07.456Z,11.00
2019-03-26T09:07:35.972Z,10.60
2019-03-26T09:10:06.736Z,10.40
2019-03-26T09:12:35.168Z,10.40
2019-03-26T09:15:04.439Z,10.50
2019-03-26T09:17:32.864Z,10.50
2019-03-26T09:20:01.304Z,10.40
2019-03-26T09:22:29.749Z,10.50
2019-03-26T09:24:58.225Z,10.40
2019-03-26T09:27:26.652Z,10.30
2019-03-26T09:29:55.084Z,10.20
2019-03-26T09:32:23.613Z,10.10
2019-03-26T09:34:52.043Z,10.30
2019-03-26T09:37:20.483Z,10.40
2019-03-26T09:39:48.906Z,10.50
2019-03-26T09:42:17.352Z,10.40
2019-03-26T09:44:45.792Z,10.30
2019-03-26T09:47:16.420Z,10.10
2019-03-26T09:49:44.411Z,10.10
2019-03-26T09:52:12.847Z,10.20
2019-03-26T09:54:41.268Z,10.30
2019-03-26T09:57:09.707Z,10.40
2019-03-26T09:59:38.132Z,10.30
2019-03-26T10:02:06.559Z,10.40
2019-03-26T10:04:34.996Z,10.60
2019-03-26T10:07:03.517Z,10.80
2019-03-26T10:09:32.251Z,11.00
2019-03-26T10:12:02.650Z,10.80
2019-03-26T10:14:34.370Z,11.80
2019-03-26T10:17:02.964Z,13.00
2019-03-26T10:19:33.142Z,13.60
2019-03-26T10:22:01.832Z,13.80
2019-03-26T10:24:30.360Z,14.50
2019-03-26T10:26:58.785Z,14.80
2019-03-26T10:29:30.665Z,14.70
2019-03-26T10:31:59.501Z,14.50
2019-03-26T10:34:27.945Z,14.20
2019-03-26T10:36:56.367Z,15.70
2019-03-26T10:39:24.808Z,16.10
2019-03-26T10:41:53.244Z,16.10
2019-03-26T10:44:21.874Z,15.80
2019-03-26T10:46:53.268Z,15.60
2019-03-26T10:49:22.029Z,15.20
2019-03-26T10:51:50.579Z,14.70
2019-03-26T10:54:19.031Z,14.40
2019-03-26T10:56:47.462Z,14.10
2019-03-26T10:59:15.930Z,13.90
2019-03-26T11:01:44.356Z,13.60
2019-03-26T11:04:12.801Z,13.40
2019-03-26T11:06:41.232Z,13.10
2019-03-26T11:09:21.402Z,13.00
2019-03-26T11:11:39.832Z,12.80
2019-03-26T11:14:08.288Z,12.60
2019-03-26T11:16:36.717Z,12.50
2019-03-26T11:19:05.160Z,12.60
2019-03-26T11:21:33.589Z,12.50
2019-03-26T11:24:02.060Z,12.40
2019-03-26T11:26:30.557Z,12.50
2019-03-26T11:28:59.016Z,12.40
2019-03-26T11:31:29.955Z,12.40
2019-03-26T11:33:57.629Z,12.30
2019-03-26T11:36:26.124Z,12.10
2019-03-26T11:38:54.624Z,11.90
2019-03-26T11:41:23.056Z,11.70
2019-03-26T11:43:51.494Z,11.80
2019-03-26T11:46:19.937Z,11.80
2019-03-26T11:48:48.428Z,12.00
2019-03-26T11:51:16.860Z,12.20
2019-03-26T11:53:45.296Z,12.10
2019-03-26T11:56:13.716Z,12.10
2019-03-26T11:58:42.139Z,12.20
2019-03-26T12:01:10.577Z,12.20
2019-03-26T12:03:39.005Z,12.10
2019-03-26T12:06:07.448Z,12.20
2019-03-26T12:08:35.867Z,12.10
2019-03-26T12:11:04.320Z,11.90
2019-03-26T12:13:32.775Z,12.20
2019-03-26T12:16:01.329Z,13.00
2019-03-26T12:18:29.804Z,13.80
2019-03-26T12:20:58.261Z,14.80
2019-03-26T12:23:26.682Z,15.80
2019-03-26T12:25:55.120Z,15.80
2019-03-26T12:28:23.548Z,16.10
2019-03-26T12:30:51.984Z,16.10
2019-03-26T12:33:20.413Z,15.10
2019-03-26T12:35:48.853Z,14.40
2019-03-26T12:38:18.533Z,13.90
2019-03-26T12:40:47.040Z,13.90
2019-03-26T12:43:15.636Z,14.20
2019-03-26T12:45:44.075Z,14.10
2019-03-26T12:48:12.513Z,14.20
2019-03-26T12:50:40.958Z,14.00
2019-03-26T12:53:12.541Z,13.90
2019-03-26T12:55:42.775Z,13.90
2019-03-26T12:58:11.269Z,13.80
2019-03-26T13:00:39.704Z,13.80
2019-03-26T13:03:08.128Z,13.90
2019-03-26T13:05:36.562Z,14.20
2019-03-26T13:08:04.988Z,14.20
2019-03-26T13:10:33.420Z,14.30
2019-03-26T13:13:01.848Z,14.40
2019-03-26T13:15:30.296Z,14.20
2019-03-26T13:17:58.728Z,14.20
2019-03-26T13:20:27.159Z,14.00
2019-03-26T13:22:55.599Z,13.80
2019-03-26T13:25:24.022Z,13.50
2019-03-26T13:27:52.456Z,13.70
2019-03-26T13:30:21.312Z,14.10
2019-03-26T13:32:49.736Z,14.40
2019-03-26T13:35:18.191Z,14.60
2019-03-26T13:37:46.612Z,14.80
2019-03-26T13:40:26.468Z,14.70
2019-03-26T13:42:45.651Z,14.70
2019-03-26T13:45:14.415Z,14.90
2019-03-26T13:47:42.852Z,15.10
2019-03-26T13:50:11.719Z,15.30
2019-03-26T13:52:40.241Z,15.60
2019-03-26T13:55:09.316Z,15.90
2019-03-26T13:57:37.741Z,16.20
2019-03-26T14:00:08.656Z,16.30
2019-03-26T14:02:37.081Z,16.50
2019-03-26T14:05:23.185Z,16.90
2019-03-26T14:07:51.844Z,17.10
2019-03-26T14:10:20.344Z,17.20
2019-03-26T14:12:48.779Z,17.50
2019-03-26T14:15:17.203Z,17.70
2019-03-26T14:17:45.642Z,17.80
2019-03-26T14:20:14.863Z,17.70
2019-03-26T14:22:43.293Z,17.60
2019-03-26T14:25:12.256Z,17.60
2019-03-26T14:27:40.712Z,17.30
2019-03-26T14:30:10.358Z,16.70
2019-03-26T14:32:38.789Z,16.40
2019-03-26T14:35:07.860Z,16.00
2019-03-26T14:37:50.308Z,15.80
2019-03-26T14:40:06.959Z,16.00
2019-03-26T14:42:35.407Z,16.20
2019-03-26T14:45:07.779Z,16.20
2019-03-26T14:47:36.199Z,16.10
2019-03-26T14:50:06.588Z,15.50
2019-03-26T14:52:35.081Z,15.30
2019-03-26T14:55:04.385Z,15.00
2019-03-26T14:57:32.824Z,14.80
2019-03-26T15:00:01.326Z,14.80
2019-03-26T15:02:29.765Z,15.20
2019-03-26T15:04:58.191Z,15.60
2019-03-26T15:07:26.634Z,15.50
2019-03-26T15:09:55.056Z,15.60
2019-03-26T15:12:23.498Z,15.10
2019-03-26T15:14:52.883Z,14.60
2019-03-26T15:17:21.406Z,14.10
2019-03-26T15:19:49.885Z,14.10
2019-03-26T15:22:18.378Z,14.20
2019-03-26T15:24:46.821Z,14.50
2019-03-26T15:27:15.409Z,14.50
2019-03-26T15:29:43.838Z,14.40
2019-03-26T15:32:12.310Z,14.70
2019-03-26T15:34:40.938Z,14.80
2019-03-26T15:37:09.390Z,15.00
2019-03-26T15:39:37.897Z,14.80
2019-03-26T15:42:06.334Z,14.80
2019-03-26T15:44:34.766Z,14.90
2019-03-26T15:47:03.187Z,15.10
2019-03-26T15:49:31.636Z,14.90
2019-03-26T15:52:00.064Z,15.10
2019-03-26T15:54:28.519Z,15.20
2019-03-26T15:56:57.144Z,15.20
2019-03-26T15:59:25.746Z,15.10
2019-03-26T16:01:54.196Z,15.20
2019-03-26T16:04:22.625Z,15.00
2019-03-26T16:06:51.053Z,14.60
2019-03-26T16:09:19.506Z,14.20
2019-03-26T16:11:47.935Z,13.80
2019-03-26T16:14:16.359Z,13.60
2019-03-26T16:16:44.800Z,13.40
2019-03-26T16:19:13.378Z,13.10
2019-03-26T16:21:41.916Z,13.10
2019-03-26T16:24:10.532Z,13.00
2019-03-26T16:26:38.973Z,12.80
2019-03-26T16:29:07.889Z,12.80
2019-03-26T16:31:36.376Z,12.70
2019-03-26T16:34:04.832Z,12.70
2019-03-26T16:36:34.160Z,12.60
2019-03-26T16:39:02.638Z,12.60
2019-03-26T16:41:33.448Z,12.70
2019-03-26T16:44:05.430Z,12.80
2019-03-26T16:46:36.442Z,13.10
2019-03-26T16:49:04.316Z,13.30
2019-03-26T16:51:32.969Z,13.40
2019-03-26T16:54:01.529Z,13.40
2019-03-26T16:56:29.963Z,13.20
2019-03-26T16:58:58.416Z,13.20
2019-03-26T17:01:26.934Z,13.10
2019-03-26T17:03:55.386Z,13.10
2019-03-26T17:06:23.828Z,13.00
2019-03-26T17:08:52.300Z,12.70
2019-03-26T17:11:20.789Z,12.50
2019-03-26T17:13:49.424Z,12.30
2019-03-26T17:16:17.952Z,12.10
2019-03-26T17:18:46.389Z,12.00
2019-03-26T17:21:18.180Z,11.90
2019-03-26T17:23:44.997Z,11.80
2019-03-26T17:26:15.473Z,11.60
2019-03-26T17:28:43.676Z,11.60
2019-03-26T17:31:12.232Z,11.50
2019-03-26T17:33:40.999Z,11.40
2019-03-26T17:36:09.876Z,11.30
2019-03-26T17:38:38.603Z,11.30
2019-03-26T17:41:07.090Z,11.10
2019-03-26T17:43:35.639Z,11.00
2019-03-26T17:46:04.193Z,10.90
2019-03-26T17:48:32.721Z,10.90
2019-03-26T17:51:01.226Z,10.80
2019-03-26T17:53:29.702Z,10.70
2019-03-26T17:55:58.254Z,10.70
2019-03-26T17:58:26.816Z,10.60
2019-03-26T18:00:55.322Z,10.40
2019-03-26T18:03:26.627Z,10.40
2019-03-26T18:05:54.325Z,10.40
2019-03-26T18:08:22.874Z,10.20
2019-03-26T18:10:52.325Z,10.20
2019-03-26T18:13:20.804Z,10.10
2019-03-26T18:15:49.551Z,9.90
2019-03-26T18:18:18.036Z,9.70
2019-03-26T18:20:46.765Z,9.50
2019-03-26T18:23:15.275Z,9.30
2019-03-26T18:25:43.752Z,9.10
2019-03-26T18:28:12.272Z,9.10
2019-03-26T18:30:40.761Z,9.10
2019-03-26T18:33:12.901Z,9.00
2019-03-26T18:35:41.940Z,8.70
2019-03-26T18:38:10.726Z,8.60
2019-03-26T18:40:40.515Z,8.60
2019-03-26T18:43:09.019Z,8.60
2019-03-26T18:45:37.690Z,8.50
2019-03-26T18:48:07.601Z,8.40
2019-03-26T18:50:36.152Z,8.30
2019-03-26T18:53:05.635Z,8.20
2019-03-26T18:55:34.159Z,8.10
2019-03-26T18:58:02.644Z,8.00
2019-03-26T19:00:36.418Z,7.80
2019-03-26T19:03:06.683Z,7.80
2019-03-26T19:05:35.214Z,7.80
2019-03-26T19:08:04.401Z,7.70
2019-03-26T19:10:34.261Z,7.60
2019-03-26T19:13:18.023Z,7.60
2019-03-26T19:15:34.718Z,7.50
2019-03-26T19:18:04.104Z,7.60
2019-03-26T19:20:32.801Z,7.50
2019-03-26T19:23:01.616Z,7.40
2019-03-26T19:25:30.207Z,7.30
2019-03-26T19:27:58.776Z,7.20
2019-03-26T19:30:30.158Z,7.20
2019-03-26T19:32:59.093Z,7.20
2019-03-26T19:35:28.001Z,7.10
2019-03-26T19:37:57.815Z,7.00
2019-03-26T19:40:30.354Z,7.00
2019-03-26T19:43:10.248Z,7.10
2019-03-26T19:45:30.405Z,7.10
2019-03-26T19:47:58.996Z,7.10
2019-03-26T19:50:28.831Z,7.10
2019-03-26T19:52:57.549Z,7.10
2019-03-26T19:55:26.111Z,7.20
2019-03-26T19:57:54.651Z,7.20
2019-03-26T20:00:23.342Z,7.20
2019-03-26T20:02:51.902Z,7.20
2019-03-26T20:05:20.619Z,7.20
2019-03-26T20:07:49.151Z,7.30
2019-03-26T20:10:18.127Z,7.20
2019-03-26T20:12:47.693Z,7.20
2019-03-26T20:15:16.915Z,7.10
2019-03-26T20:17:52.178Z,7.20
2019-03-26T20:20:21.283Z,7.20
2019-03-26T20:22:51.579Z,7.00
2019-03-26T20:25:23.391Z,7.00
2019-03-26T20:27:51.984Z,6.90
2019-03-26T20:30:21.612Z,6.80
2019-03-26T20:32:50.216Z,6.80
2019-03-26T20:35:24.015Z,6.90
2019-03-26T20:37:52.973Z,6.80
2019-03-26T20:40:21.760Z,6.90
2019-03-26T20:42:50.347Z,6.80
2019-03-26T20:45:19.033Z,6.80
2019-03-26T20:47:48.331Z,6.70
2019-03-26T20:50:17.397Z,6.60
2019-03-26T20:52:45.901Z,6.60
2019-03-26T20:55:15.067Z,6.60
2019-03-26T20:57:44.123Z,6.50
2019-03-26T21:00:15.137Z,6.30
2019-03-26T21:02:44.038Z,6.30
2019-03-26T21:05:13.993Z,6.20
2019-03-26T21:07:42.584Z,6.30
2019-03-26T21:10:17.408Z,6.30
2019-03-26T21:12:46.461Z,6.20
2019-03-26T21:15:15.024Z,6.20
2019-03-26T21:17:43.485Z,6.00
2019-03-26T21:20:12.197Z,5.90
2019-03-26T21:22:42.743Z,5.80
2019-03-26T21:25:16.605Z,5.90
2019-03-26T21:27:48.863Z,5.80
2019-03-26T21:30:20.465Z,5.80
2019-03-26T21:32:52.876Z,5.70
2019-03-26T21:35:23.942Z,5.60
2019-03-26T21:37:57.769Z,5.50
2019-03-26T21:40:28.894Z,5.50
2019-03-26T21:42:58.440Z,5.60
2019-03-26T21:45:38.557Z,5.70
2019-03-26T21:48:11.046Z,5.60
2019-03-26T21:50:40.982Z,5.60
2019-03-26T21:53:09.656Z,5.60
2019-03-26T21:55:38.592Z,5.50
2019-03-26T21:58:07.221Z,5.60
2019-03-26T22:00:36.443Z,5.70
2019-03-26T22:03:06.733Z,5.80
2019-03-26T22:05:35.334Z,5.70
2019-03-26T22:08:03.854Z,5.80
2019-03-26T22:10:32.359Z,5.90
2019-03-26T22:13:00.830Z,5.90
2019-03-26T22:15:29.278Z,5.90
2019-03-26T22:17:57.740Z,5.90
2019-03-26T22:20:26.194Z,5.90
2019-03-26T22:22:54.906Z,5.80
2019-03-26T22:25:23.389Z,5.80
2019-03-26T22:27:51.884Z,5.80
2019-03-26T22:30:20.652Z,5.70
2019-03-26T22:32:49.071Z,5.70
2019-03-26T22:35:17.500Z,5.60
2019-03-26T22:37:45.922Z,5.60
2019-03-26T22:40:14.516Z,5.60
2019-03-26T22:42:42.934Z,5.60
2019-03-26T22:45:12.129Z,5.70
2019-03-26T22:47:40.734Z,5.70
2019-03-26T22:50:10.845Z,5.70
2019-03-26T22:52:39.354Z,5.60
2019-03-26T22:55:09.707Z,5.50
2019-03-26T22:57:38.400Z,5.50
2019-03-26T23:00:20.627Z,5.50
2019-03-26T23:02:49.046Z,5.40
2019-03-26T23:05:17.811Z,5.30
2019-03-26T23:07:46.247Z,5.40
2019-03-26T23:10:15.718Z,5.30
2019-03-26T23:12:44.137Z,5.30
2019-03-26T23:15:21.603Z,5.30
2019-03-26T23:17:50.096Z,5.20
2019-03-26T23:20:18.615Z,5.10
2019-03-26T23:22:47.106Z,5.00
2019-03-26T23:25:15.790Z,5.00
2019-03-26T23:27:44.215Z,4.90
2019-03-26T23:30:13.186Z,4.90
2019-03-26T23:32:41.617Z,4.90
2019-03-26T23:35:10.275Z,4.90
2019-03-26T23:37:38.708Z,4.90
2019-03-26T23:40:07.568Z,4.80
2019-03-26T23:42:36.005Z,4.60
2019-03-26T23:45:07.643Z,4.60
2019-03-26T23:47:36.145Z,4.60
2019-03-26T23:50:07.823Z,4.70
2019-03-26T23:52:36.248Z,4.60
2019-03-26T23:55:07.137Z,4.60
2019-03-26T23:57:37.361Z,4.70
